Timeline UpdatesTrip UpdatesNews PostsPvt PostsTravel TipsAdmin PostsConv PostsFollowed PostsChat RequestsBlog PostsPNR Posts

Disclaimer
Search
 
 
Wed Jul 23, 2014 09:11:51 ISTHomeTrainsΣChainsAtlasPNRForumGalleryNewsFAQTripsMembersLoginFeedback
No Recent News for this Train
Other Trains in the News **new
Latest...
⇐ Return Journey: Train# 59812

59811/Haldighati Passenger

Feb 23 2014 (1:14AM)
Change Departure Station:
Change Arrival Station:
Post a Train Travel TipPost a Train Travel Tip **new
Post a Comment/Question/Picture/VideoPost a Comment/Question/Picture/Video
Pantry/Catering
✕ NO Pantry Car
✓ Catering Avbl
Loco/Rake Reversals
KOTA/Kota Junction (5);
RSA - Rake Sharing
Comes to AF as 59811, departs as 59814
Rake/Coach Composition
Loco-SLR+Handicapped-GS1-GS2-GS3-GS4-GS5-S1-S2-S3-GS6-GS7-GS8-SLR; Total Length-13 Coaches
Loco
Rtm-Kota:- WDM 3A RTM shed Kota-AF:- WAM 4E BRC shed Re# 549005-21
News    PNR    Forum    Time-Table    Availability    Fare Chart    Map    Arr/Dep History    Trips    Gallery    ΣChains    X/O    Timeline    
Travel Time: 1h 28m    7 halts    Distance: 50 km    Avg Speed: 34 km/hr
Type: Passenger
Zone: WR/Western
Departs @ 04:32
Platform# ???
SMTWTFS
Rupbas/RBS 
Arrives @ 06:00
Platform# 2
SMTWTFS
Agra Fort/AF 

7 halts. 7 intermediate Stations between Rupbas and Agra Fort

Show ALL intermediate Stations  Show Old Time-Table

#CodeStation NameX/OArrivesAvgDepartsAvgHaltPFDay#KmSpeedElevZoneAddress
1RTMRatlam Junction (7)  -09:55---1-647.952495mWRRatlam, Madhya Pradesh
2NLINamli  10:10-10:11-1m--1-635.063494mWRNamli, Madhya Pradesh
3BRLABrayla Chaurasi  10:22-10:23-1m--1-623.456486mWRBadayla Chorasi Rd, Madhya Pradesh
4JAOJaora (2)  10:32-10:33-1m11-615.072476mWRJaora, Madhya Pradesh
5DODDhodhar  10:47-10:48-1m--1-598.156478mWRDhodar, Madhya Pradesh
6KHNRKachnara  10:56-10:57-1m--1-590.657492mWRKachnara, Madhya Pradesh
7DLDDalauda  11:10-11:11-1m--1-578.273469mWRDalauda, Madhya Pradesh
8MDSMandsor (2)  11:23-11:24-1m--1-563.659436mWRMandsaur, Madhya Pradesh
9PIPPiplia (1)  11:40-11:41-1m11-547.948472mWRPanth Pipalia, Madhya Pradesh
10MLGMalhargarh  11:51-11:52-1m--1-539.924466mWRMalhargarh, Madhya Pradesh
11HKLHarkia KhalX  12:22-12:23-1m--1-527.736455mWRState Highway 31, Rajasthan
12NMHNimach (3)X  12:45-12:55-10m--1-514.665490mWRMDR 11A, Madhya Pradesh
13BIWKBisalwas Kalan  13:04-13:05-1m--1-504.840477mWRMDR 11A, Rajasthan
14JWOJawad Road  13:15-13:16-1m--1-498.162462mWRNayagaon, Rajasthan
15NBHNimbahera (1)  13:26-13:27-1m11-487.956441mWRNimbahera, Rajasthan
16GRFGambhiri Road  13:36-13:37-1m11-479.555441mWRNational Highway 79, Rajasthan
17SMPShambhupura  13:47-13:48-1m--1-470.358423mWRShambhupura, Rajasthan
18CORChittaurgarh Junction (5)X  14:00-14:10-10m--1-458.615403mWRChittorgarh, Rajasthan
19CNAChanderiya (2)  14:38-14:40-2m--1-451.745408mWRChittorgarh, Rajasthan
20BSSLBasi Beriasal  15:03-15:04-1m--1-434.371412mWCRBassi, Rajasthan
21PSLIParsoli  15:18-15:20-2m--1-417.663380mWCRNH 76, Rajasthan
22BNDIBarundini  15:29-15:30-1m--1-408.251373mWCRNational Highway 76, Rajasthan
23MLGHMandalgarh  15:48-15:50-2m--1-393.148382mWCRMandalgarh, Rajasthan
24SMPAShampura  16:10-16:12-2m--1-377.162395mWCRMandalgarh, Rajasthan
25URMLUpramal  16:22-16:23-1m--1-366.952390mWCRMDR 41, Rajasthan
26JNRIJalindri  16:31-16:32-1m--1-359.955 WCR
27SNARSrinagar RajasthanX  16:58-17:00-2m--1-335.913259mWCRShreenagar RJ, Rajasthan
28BUDIBundi  17:48-17:50-2m--1-325.635256mWCRBundi, Rajasthan
29THEAThaleraO  18:14-18:15-1m--1-311.614248mWCRTalera, Rajasthan
30KOTAKota Junction (5)↵¶20:20-21:00-40m11-282.941256mWCRKota, Rajasthan
31GQLGurla  21:08-21:10-2m--1-277.553251mWCRSH 33, Rajasthan
32KPTNKeshorai Patan  21:19-21:20-1m--1-269.573243mWCRSH 33, Rajasthan
33AREArnetha  21:29-21:30-1m--1-258.661239mWCRShreepura, Rajasthan
34KPZKaprenX  21:39-21:40-1m--1-249.467234mWCRKota - Lalsot Mega Highway, Rajasthan
35GKBGhataka VaranaX  21:49-21:50-1m--1-239.462232mWCRSH 33, Rajasthan
36LBNLaban (2)X  21:59-22:00-1m--1-230.050225mWCRBundi, Rajasthan
37LKELakheri (3)XO  22:09-22:10-1m--1-222.466228mWCRBundi, Rajasthan
38IDGIndargarh Sumerganj Mandi (2)X  22:20-22:22-2m--1-211.578247mWCRIndargarh, Rajasthan
39AMLIAmliX  22:32-22:34-2m--1-198.465233mWCRSawai Madhopur, Rajasthan
40RWJRawania DungarX  22:41-22:43-2m--1-190.856266mWCRSawai Madhopur, Rajasthan
41KTAKushtalaX  22:52-22:54-2m--1-182.327283mWCRNH 116, Rajasthan
42SWMSawai Madhopur Junction (4)XO  23:10-23:15-5m--1-175.277266mWCRSawai Madhopur, Rajasthan
43RNTRanthambhore  23:23-23:25-2m--1-165.0110248mWCRMDR 111, Rajasthan
44MXLMokholi  23:30-23:35-5m--1-155.865242mWCRMDR 111, Rajasthan
45MLZMalarna  23:45-23:47-2m--1-145.027236mWCRSawai Madhopur, Rajasthan
46NMDNomodaX  00:03-00:04-1m--2-137.958238mWCRMDR 111, Rajasthan
47NNWNarayanpur Tatwara (2)  00:14-00:15-1m--2-128.271256mWCRSawai Madhopur, Rajasthan
48LRULalpur UmriX  00:24-00:25-1m--2-117.613276mWCRSH 1, Rajasthan
49GGCGangapur City (3)O  00:55-01:05-10m--2-111.364270mWCRGangapur, Rajasthan
50COOChhoti Odai  01:17-01:18-1m--2-98.547257mWCRSH 25, Rajasthan
51PDZPiliodaXO  01:28-01:30-2m--2-90.745247mWCRSH 1, Rajasthan
52SMBJShri Mahabirji (3)X  01:48-01:50-2m--2-77.234240mWCRKarauli, Rajasthan
53HANHindaun City (2)X  02:08-02:10-2m--2-67.072230mWCRKarauli, Rajasthan
54FSPFateh Singhpura  02:21-02:23-2m--2-53.871223mWCRState Highway 1, Rajasthan
55DYDumariya (2)  02:32-02:34-2m--2-43.212211mWCRState Highway 1, Rajasthan
56BXNBayana Junction (3)  03:20-03:45-25m--2-34.145198mWCRBayana, Rajasthan
57BAMABirambad (1)XO  03:51-03:52-1m12-29.646196mNCRDumariya, Rajasthan
58BRBandh Bareta (1)  03:58-03:59-1m12-25.049203mNCRDumariya, Rajasthan
59NGLTNaglatula (1)  04:06-04:07-1m12-19.354209mNCRBayana, Rajasthan
60BIQBansi Paharpur (1)  04:14-04:15-1m12-13.050216mNCRRupbas, Rajasthan
61DXKDhana Kherli (1)  04:22-04:23-1m12-7.254192mNCRFatehpur Sikri, Uttar Pradesh
62RBS»Rupbas (2)»  04:31-04:32-1m--20.040178mNCRJAGNER ROAD, Rajasthan
63AEDAulenda (1)  04:40-04:41-1m125.359179mNCRKiraoli, Uttar Pradesh
64FTSFatehpur Sikri (2)  04:50-04:51-1m--214.238176mNCRAgra, Uttar Pradesh
65SNPRSingarpur (1)  04:59-05:00-1m1219.362168mNCRRupbas, Rajasthan
66KLBKiraoli (1)  05:07-05:08-1m1226.654174mNCRKiraoli, Uttar Pradesh
67MIQMirhakur (1)  05:17-05:18-1m1234.740172mNCRIdgah Agra, Uttar Pradesh
68PTLIPathauli (1)X  05:27-05:28-1m1240.757174mNCRAgra Fort, Uttar Pradesh
69IDHIdgah Agra Junction (3)  05:36-05:38-2m--248.26168mNCRAgra, Uttar Pradesh
70AF•Agra Fort (3)•  06:00--2250.4-170mNCRRakabganj, Uttar Pradesh
Scroll to Top
Scroll to Bottom